Time;durP1;ratioP1;P1;durP2;ratioP2;P2;SDS_P1;SDS_P2;PMS_P1;PMS_P2;Temp;Humidity;BMP_temperature;BMP_pressure;BME280_temperature;BME280_humidity;BME280_pressure;Samples;Min_cycle;Max_cycle;Signal;HPM_P1;HPM_P2
2023/03/06 00:04:11;;;;;;;10.48;8.45;;;4.40;99.90;;;;;;4960437;23;20081;-96
2023/03/06 00:06:40;;;;;;;11.95;8.77;;;4.50;99.90;;;;;;4956867;29;20047;-94
2023/03/06 00:09:09;;;;;;;11.02;9.00;;;4.90;99.90;;;;;;4956296;29;20035;-93
2023/03/06 00:19:08;;;;;;;9.68;7.22;;;4.40;99.90;;;;;;4983932;23;20315;-93
2023/03/06 00:34:41;;;;;;;8.10;7.15;;;4.50;99.90;;;;;;5380933;23;20068;-93
2023/03/06 00:41:36;;;;;;;11.30;7.53;;;4.50;99.90;;;;;;4967774;23;20083;-94
2023/03/06 00:44:08;;;;;;;8.13;7.18;;;4.50;99.90;;;;;;4942132;29;20391;-94
2023/03/06 00:46:40;;;;;;;9.85;7.07;;;4.50;99.90;;;;;;4949372;23;20483;-92
2023/03/06 00:58:11;;;;;;;8.38;7.13;;;4.60;99.90;;;;;;4963523;23;20064;-94
2023/03/06 01:01:14;;;;;;;7.50;6.70;;;5.30;99.90;;;;;;5190190;23;20047;-92
2023/03/06 01:03:43;;;;;;;10.82;7.32;;;4.40;99.90;;;;;;4949296;23;20163;-94
2023/03/06 01:06:12;;;;;;;9.00;7.15;;;5.30;99.90;;;;;;4918802;29;20052;-93
2023/03/06 01:08:39;;;;;;;9.15;7.20;;;4.80;99.90;;;;;;4957556;23;20106;-93
2023/03/06 01:11:08;;;;;;;9.43;7.05;;;4.90;99.90;;;;;;4946410;23;20039;-94
2023/03/06 01:13:44;;;;;;;8.63;6.78;;;5.00;99.90;;;;;;4946556;23;20056;-95
2023/03/06 01:16:15;;;;;;;7.68;6.40;;;4.50;99.90;;;;;;4881610;29;20127;-93
2023/03/06 01:18:47;;;;;;;11.38;6.63;;;5.10;99.90;;;;;;4926480;23;20115;-94
2023/03/06 01:21:16;;;;;;;9.18;6.80;;;4.80;99.90;;;;;;4935839;23;20048;-96
2023/03/06 01:24:18;;;;;;;7.20;6.57;;;3.70;99.90;;;;;;4942001;23;20443;-94
2023/03/06 01:33:20;;;;;;;11.55;7.22;;;4.50;99.90;;;;;;4945984;23;20050;-94
2023/03/06 01:35:52;;;;;;;13.00;8.30;;;4.90;99.90;;;;;;4943199;23;20048;-95
2023/03/06 01:38:21;;;;;;;10.82;8.23;;;4.20;99.90;;;;;;4939337;29;20039;-95
2023/03/06 01:40:50;;;;;;;9.40;7.78;;;4.40;99.90;;;;;;4946862;23;20399;-95
2023/03/06 01:43:47;;;;;;;10.57;9.23;;;4.40;99.90;;;;;;4940225;29;20024;-95
2023/03/06 01:46:46;;;;;;;10.18;9.10;;;4.40;99.90;;;;;;4940381;29;20498;-95
2023/03/06 01:52:30;;;;;;;;;;;;;;;;;;;;;
2023/03/06 01:55:40;;;;;;;10.68;9.13;;;4.80;99.90;;;;;;4936939;29;20058;-94
2023/03/06 01:58:19;;;;;;;9.85;8.90;;;4.40;99.90;;;;;;4902508;29;20036;-95
2023/03/06 02:00:45;;;;;;;13.45;9.00;;;5.30;99.90;;;;;;4939513;29;20032;-92
2023/03/06 02:03:19;;;;;;;9.95;8.68;;;5.20;99.90;;;;;;4939288;29;20024;-94
2023/03/06 02:05:48;;;;;;;10.80;9.70;;;5.50;99.90;;;;;;4939318;29;20034;-95
2023/03/06 02:08:22;;;;;;;9.95;9.00;;;4.60;99.90;;;;;;4938815;29;20475;-95
2023/03/06 02:11:21;;;;;;;13.00;9.77;;;4.00;99.90;;;;;;4938981;29;20123;-95
2023/03/06 02:13:48;;;;;;;9.73;8.82;;;3.60;99.90;;;;;;4938689;29;20060;-94
2023/03/06 02:16:16;;;;;;;13.50;9.25;;;4.10;99.90;;;;;;4939066;29;20430;-95
2023/03/06 02:18:48;;;;;;;19.77;10.10;;;4.50;99.90;;;;;;4939423;29;20027;-94
2023/03/06 02:21:49;;;;;;;14.73;9.32;;;4.60;99.90;;;;;;4939120;29;20027;-94
2023/03/06 02:24:20;;;;;;;;;;;3.90;99.90;;;;;;4939781;29;20035;-94
2023/03/06 02:26:50;;;;;;;13.43;9.32;;;3.40;99.90;;;;;;4939185;29;20398;-93
2023/03/06 02:32:47;;;;;;;12.25;9.75;;;3.90;99.90;;;;;;4843671;29;20152;-95
2023/03/06 02:43:38;;;;;;;10.07;8.43;;;3.70;99.90;;;;;;4950610;23;20076;-94
2023/03/06 02:46:38;;;;;;;10.52;8.70;;;4.40;99.90;;;;;;4952776;23;20517;-94
2023/03/06 02:49:06;;;;;;;10.75;8.60;;;3.80;99.90;;;;;;4933738;23;20158;-93
2023/03/06 02:51:37;;;;;;;17.45;9.80;;;3.90;99.90;;;;;;4957835;23;20047;-95
2023/03/06 02:54:06;;;;;;;8.73;7.65;;;4.30;99.90;;;;;;4968394;23;20498;-94
2023/03/06 02:56:32;;;;;;;12.70;8.38;;;5.10;99.90;;;;;;4962088;29;20087;-95
2023/03/06 02:58:58;;;;;;;11.65;8.18;;;4.60;99.90;;;;;;4963634;29;20055;-96
2023/03/06 03:01:26;;;;;;;10.98;8.13;;;4.80;99.90;;;;;;4959190;29;20030;-95
2023/03/06 03:06:49;;;;;;;8.45;7.03;;;5.10;99.90;;;;;;4958072;29;20407;-93
2023/03/06 03:09:16;;;;;;;11.13;8.05;;;4.80;99.90;;;;;;4980886;23;20067;-95
2023/03/06 03:11:42;;;;;;;9.35;7.60;;;5.10;99.90;;;;;;4933229;28;20097;-93
2023/03/06 03:16:47;;;;;;;8.60;7.00;;;4.50;99.90;;;;;;4965478;23;20058;-96
2023/03/06 03:19:13;;;;;;;9.50;7.25;;;5.00;99.90;;;;;;4969738;23;20211;-95
2023/03/06 03:21:40;;;;;;;11.80;8.15;;;5.30;99.90;;;;;;4956957;29;20027;-95
2023/03/06 03:24:41;;;;;;;18.13;8.27;;;5.10;99.90;;;;;;4957481;29;20419;-94
2023/03/06 03:27:11;;;;;;;10.55;7.50;;;4.80;99.90;;;;;;4928932;29;20036;-95
2023/03/06 03:29:45;;;;;;;12.40;7.95;;;5.10;99.90;;;;;;4957974;29;20024;-95
2023/03/06 03:32:14;;;;;;;10.05;6.93;;;4.60;99.90;;;;;;4957464;29;20035;-96
2023/03/06 03:34:42;;;;;;;8.27;6.53;;;4.60;99.90;;;;;;4957565;29;20034;-95
2023/03/06 03:37:13;;;;;;;8.98;6.80;;;4.50;99.90;;;;;;4957275;29;20031;-96
2023/03/06 03:39:40;;;;;;;7.90;6.18;;;4.50;99.90;;;;;;4956994;29;20031;-94
2023/03/06 03:42:09;;;;;;;7.85;6.15;;;5.00;99.90;;;;;;4956363;29;20023;-93
2023/03/06 03:44:35;;;;;;;9.10;7.15;;;5.00;99.90;;;;;;4956790;29;20033;-94
2023/03/06 03:47:07;;;;;;;8.88;5.82;;;5.10;99.90;;;;;;4956348;29;20027;-93
2023/03/06 03:49:35;;;;;;;7.53;6.82;;;4.70;99.90;;;;;;4956851;29;20063;-93
2023/03/06 03:52:04;;;;;;;6.78;5.93;;;5.20;99.90;;;;;;4956221;29;20360;-94
2023/03/06 03:54:34;;;;;;;8.43;6.57;;;5.10;99.90;;;;;;4956515;29;20034;-94
2023/03/06 03:57:02;;;;;;;7.73;6.47;;;4.80;99.90;;;;;;4956491;29;20035;-95
2023/03/06 04:04:27;;;;;;;8.32;5.90;;;4.60;99.90;;;;;;4938934;23;20055;-95
2023/03/06 04:06:55;;;;;;;6.78;5.32;;;4.50;99.90;;;;;;4937667;29;20095;-95
2023/03/06 04:09:54;;;;;;;6.25;5.35;;;4.50;99.90;;;;;;4937738;29;20020;-94
2023/03/06 04:12:20;;;;;;;9.50;4.80;;;4.30;99.90;;;;;;4937183;29;20472;-94
2023/03/06 04:14:46;;;;;;;6.22;4.80;;;4.90;99.90;;;;;;4937480;29;20039;-92
2023/03/06 04:17:13;;;;;;;5.70;4.68;;;4.80;99.90;;;;;;4937343;29;20063;-93
2023/03/06 04:22:14;;;;;;;5.93;4.50;;;4.20;99.90;;;;;;5074383;23;20478;-94
2023/03/06 04:24:40;;;;;;;6.65;4.03;;;4.40;99.90;;;;;;4948574;28;20468;-94
2023/03/06 04:27:12;;;;;;;7.47;4.22;;;5.20;99.90;;;;;;4940468;29;20035;-93
2023/03/06 04:29:38;;;;;;;4.65;4.00;;;4.90;99.90;;;;;;4957879;28;20036;-94
2023/03/06 04:32:09;;;;;;;5.93;3.88;;;4.70;99.90;;;;;;5208119;23;20058;-93
2023/03/06 04:35:05;;;;;;;5.55;4.50;;;4.30;99.90;;;;;;4980878;23;20067;-91
2023/03/06 04:38:02;;;;;;;6.13;4.03;;;4.20;99.90;;;;;;4937280;23;20113;-94
2023/03/06 04:40:31;;;;;;;4.35;3.95;;;3.60;99.90;;;;;;4883293;29;20049;-92
2023/03/06 04:42:58;;;;;;;6.00;3.92;;;4.20;99.90;;;;;;4883564;29;20114;-91
2023/03/06 04:45:28;;;;;;;7.72;4.18;;;4.60;99.90;;;;;;4882064;29;20392;-94
2023/03/06 04:47:54;;;;;;;4.10;3.75;;;4.60;99.90;;;;;;4882471;29;20025;-95
2023/03/06 04:50:22;;;;;;;4.57;3.78;;;4.20;99.90;;;;;;4882778;29;20041;-95
2023/03/06 04:52:51;;;;;;;4.80;3.22;;;4.10;99.90;;;;;;4884306;29;20029;-94
2023/03/06 04:55:19;;;;;;;5.75;3.72;;;4.60;99.90;;;;;;4885164;29;20025;-94
2023/03/06 04:57:46;;;;;;;6.32;3.25;;;3.30;99.90;;;;;;4884479;29;20029;-94
2023/03/06 05:00:19;;;;;;;5.72;3.47;;;4.00;99.90;;;;;;4923771;23;20060;-96
2023/03/06 05:02:48;;;;;;;4.32;3.80;;;4.00;99.90;;;;;;4958945;23;20106;-95
2023/03/06 05:05:17;;;;;;;8.13;3.70;;;4.10;99.90;;;;;;5130624;23;20102;-94
2023/03/06 05:10:43;;;;;;;3.67;2.80;;;4.10;99.90;;;;;;4968362;23;20102;-93
2023/03/06 05:13:21;;;;;;;;;;;;;;;;;;;;;
2023/03/06 05:16:09;;;;;;;6.55;2.95;;;4.20;99.90;;;;;;4894458;29;20031;-95
2023/03/06 05:18:35;;;;;;;3.70;2.80;;;4.30;99.90;;;;;;4959656;29;20075;-95
2023/03/06 05:21:04;;;;;;;7.43;3.35;;;5.00;99.90;;;;;;4959954;29;20487;-94
2023/03/06 05:23:35;;;;;;;9.32;3.80;;;4.30;99.90;;;;;;4959683;29;20023;-95
2023/03/06 05:26:04;;;;;;;;;;;4.70;99.90;;;;;;4959839;29;20031;-94
2023/03/06 05:28:33;;;;;;;3.72;3.20;;;4.30;99.90;;;;;;4959391;29;19907;-94
2023/03/06 05:31:01;;;;;;;3.92;3.63;;;4.30;99.90;;;;;;4958507;29;20062;-94
2023/03/06 05:33:34;;;;;;;3.63;3.33;;;5.00;99.90;;;;;;4959645;29;20023;-93
2023/03/06 05:36:02;;;;;;;6.57;3.50;;;5.00;99.90;;;;;;4959470;29;20027;-94
2023/03/06 05:38:31;;;;;;;5.32;3.88;;;4.20;99.90;;;;;;4959032;29;20027;-94
2023/03/06 05:40:59;;;;;;;6.28;3.92;;;4.20;99.90;;;;;;4958766;29;20545;-93
2023/03/06 05:43:27;;;;;;;6.15;3.63;;;4.20;99.90;;;;;;4959058;29;20019;-94
2023/03/06 05:48:28;;;;;;;4.97;3.75;;;4.20;99.90;;;;;;4975832;23;20107;-94
2023/03/06 05:50:58;;;;;;;5.28;3.30;;;4.60;99.90;;;;;;4962907;23;20078;-92
2023/03/06 05:53:30;;;;;;;7.90;4.30;;;4.10;99.90;;;;;;4945354;23;20063;-92
2023/03/06 06:01:27;;;;;;;4.82;3.67;;;4.20;99.90;;;;;;5001694;23;20078;-93
2023/03/06 06:03:55;;;;;;;3.17;2.88;;;4.50;99.90;;;;;;4959882;29;20099;-92
2023/03/06 06:06:33;;;;;;;6.60;3.65;;;4.50;99.90;;;;;;4978706;23;20054;-96
2023/03/06 06:09:02;;;;;;;5.40;3.80;;;4.00;99.90;;;;;;5122485;23;20047;-95
2023/03/06 06:11:30;;;;;;;9.57;4.57;;;3.80;99.90;;;;;;4954743;29;20134;-95
2023/03/06 06:13:56;;;;;;;5.97;4.45;;;4.00;99.90;;;;;;4944321;29;20036;-92
2023/03/06 06:19:29;;;;;;;6.30;4.75;;;4.10;99.90;;;;;;5006390;23;20123;-92
2023/03/06 06:21:55;;;;;;;4.90;4.30;;;4.70;99.90;;;;;;4938836;29;20076;-95
2023/03/06 06:24:51;;;;;;;7.53;3.90;;;4.50;99.90;;;;;;4937953;29;20066;-95
2023/03/06 06:27:26;;;;;;;4.63;3.17;;;4.10;99.90;;;;;;4921689;29;20020;-94
2023/03/06 06:29:54;;;;;;;3.63;2.90;;;4.70;99.90;;;;;;4933674;29;20043;-95
2023/03/06 06:32:22;;;;;;;3.90;2.70;;;4.50;99.90;;;;;;4927824;29;20394;-94
2023/03/06 06:34:51;;;;;;;5.90;3.17;;;4.10;99.90;;;;;;4921173;29;20032;-94
2023/03/06 06:37:19;;;;;;;3.20;2.60;;;4.70;99.90;;;;;;4922114;29;20064;-94
2023/03/06 06:39:47;;;;;;;6.00;3.08;;;4.00;99.90;;;;;;4920512;29;20063;-95
2023/03/06 06:42:24;;;;;;;5.50;3.00;;;4.90;99.90;;;;;;4920439;29;20083;-94
2023/03/06 06:44:53;;;;;;;6.28;3.47;;;4.10;99.90;;;;;;4886418;29;20036;-95
2023/03/06 06:47:24;;;;;;;5.47;4.25;;;4.50;99.90;;;;;;4920495;29;20024;-94
2023/03/06 06:50:58;;;;;;;;;;;;;;;;;;;;;
2023/03/06 07:01:26;;;;;;;5.90;3.15;;;4.40;99.90;;;;;;4861517;29;20036;-92
2023/03/06 07:04:10;;;;;;;;;;;;;;;;;;;;;
2023/03/06 07:07:23;;;;;;;4.93;2.97;;;5.10;99.90;;;;;;4758935;30;20089;-94
2023/03/06 07:16:54;;;;;;;4.63;4.22;;;4.60;99.90;;;;;;4817293;29;20110;-89
2023/03/06 07:19:20;;;;;;;6.82;5.28;;;5.40;99.90;;;;;;4853838;29;20033;-89
2023/03/06 07:21:54;;;;;;;14.30;7.10;;;6.10;99.90;;;;;;4859617;29;20093;-90
2023/03/06 07:24:23;;;;;;;8.55;5.13;;;4.70;99.90;;;;;;4899974;29;20379;-91
2023/03/06 07:33:06;;;;;;;5.07;3.85;;;4.80;99.90;;;;;;4935645;29;20086;-92
2023/03/06 07:36:03;;;;;;;7.22;4.15;;;4.80;99.90;;;;;;4937783;29;20028;-95
2023/03/06 07:39:35;;;;;;;6.20;5.57;;;4.70;99.90;;;;;;4940045;29;20048;-95
2023/03/06 07:42:32;;;;;;;6.18;5.45;;;4.80;99.90;;;;;;4827517;29;20031;-93
2023/03/06 07:52:01;;;;;;;6.95;6.00;;;4.40;99.90;;;;;;4919153;29;20051;-96
2023/03/06 07:54:34;;;;;;;12.52;4.45;;;5.40;99.90;;;;;;4917694;29;20096;-94
2023/03/06 07:57:02;;;;;;;7.03;3.50;;;5.40;99.90;;;;;;4917209;29;20036;-95
2023/03/06 08:01:56;;;;;;;12.98;4.35;;;4.90;99.90;;;;;;4944761;23;20060;-96
2023/03/06 08:04:25;;;;;;;6.18;4.07;;;4.90;99.90;;;;;;4959395;23;20051;-94
2023/03/06 08:06:58;;;;;;;5.80;4.10;;;6.00;99.90;;;;;;5086275;23;20051;31
2023/03/06 08:12:01;;;;;;;7.40;3.60;;;5.00;99.90;;;;;;5000060;23;1149223;-92
2023/03/06 08:17:21;;;;;;;4.18;3.13;;;5.80;99.90;;;;;;4959925;29;20050;-95
2023/03/06 08:22:22;;;;;;;6.93;2.95;;;5.00;99.90;;;;;;4920602;29;20041;-93
2023/03/06 08:24:57;;;;;;;4.82;2.65;;;5.10;99.90;;;;;;4920082;29;20039;-93
2023/03/06 08:31:20;;;;;;;11.88;2.60;;;4.70;99.90;;;;;;5303764;23;20055;-94
2023/03/06 08:40:46;;;;;;;3.50;1.98;;;5.10;99.90;;;;;;4916011;29;20048;-90
2023/03/06 08:43:14;;;;;;;10.40;1.90;;;5.20;99.90;;;;;;4918091;29;20036;-93
2023/03/06 08:45:42;;;;;;;14.68;1.92;;;5.50;99.90;;;;;;4925471;29;20035;-92
2023/03/06 08:48:14;;;;;;;5.35;1.80;;;5.70;99.90;;;;;;4924913;29;20032;-94
2023/03/06 08:50:46;;;;;;;3.67;2.08;;;6.00;99.90;;;;;;4923133;29;20036;-92
2023/03/06 08:53:12;;;;;;;2.40;1.52;;;6.30;99.90;;;;;;4921209;29;20036;-90
2023/03/06 08:55:37;;;;;;;5.32;2.03;;;5.40;99.90;;;;;;4925146;29;20031;-93
2023/03/06 08:58:20;;;;;;;3.70;1.70;;;5.50;99.90;;;;;;4921489;29;20064;-91
2023/03/06 09:00:50;;;;;;;4.90;2.22;;;5.50;99.90;;;;;;4924479;29;20164;-92
2023/03/06 09:06:05;;;;;;;2.05;1.60;;;5.40;99.90;;;;;;4955647;23;20056;-95
2023/03/06 09:08:41;;;;;;;5.25;2.05;;;6.60;99.90;;;;;;4944019;29;20023;-93
2023/03/06 09:14:08;;;;;;;9.32;2.15;;;6.00;99.90;;;;;;4941690;29;20039;-94
2023/03/06 09:16:33;;;;;;;2.20;1.50;;;6.20;99.90;;;;;;4940746;29;20030;-92
2023/03/06 09:19:02;;;;;;;2.88;1.70;;;5.70;99.90;;;;;;4941549;29;20036;-93
2023/03/06 09:21:31;;;;;;;3.95;1.00;;;5.80;99.90;;;;;;4941762;29;20023;-92
2023/03/06 09:24:05;;;;;;;4.35;1.48;;;6.10;99.90;;;;;;4940316;29;20376;-91
2023/03/06 09:26:34;;;;;;;4.93;1.17;;;5.60;99.90;;;;;;4941780;29;20028;-92
2023/03/06 09:29:02;;;;;;;2.78;1.05;;;6.20;99.90;;;;;;4940353;29;20039;-93
2023/03/06 09:31:33;;;;;;;4.35;1.02;;;5.60;99.90;;;;;;4950382;29;20043;-91
2023/03/06 09:34:02;;;;;;;3.20;1.10;;;6.10;99.90;;;;;;4950422;29;20110;-94
2023/03/06 09:36:34;;;;;;;1.85;0.80;;;6.00;99.90;;;;;;4940792;29;20110;-93
2023/03/06 09:39:02;;;;;;;1.25;0.90;;;6.00;99.90;;;;;;4939433;29;20036;-90
2023/03/06 09:41:37;;;;;;;1.83;1.25;;;6.80;99.90;;;;;;4940398;29;20035;-92
2023/03/06 09:44:10;;;;;;;1.85;1.20;;;5.70;99.90;;;;;;4935435;29;20039;-93
2023/03/06 09:50:51;;;;;;;3.38;1.73;;;5.60;99.90;;;;;;4921285;29;20055;-91
2023/03/06 09:53:41;;;;;;;5.15;1.77;;;5.80;99.90;;;;;;4921124;29;20051;-92
2023/03/06 09:56:16;;;;;;;2.80;1.38;;;5.80;99.90;;;;;;4921926;29;20028;-92
2023/03/06 09:58:47;;;;;;;4.07;2.00;;;5.90;99.90;;;;;;4923900;29;20111;-92
2023/03/06 10:01:21;;;;;;;3.58;2.00;;;5.80;99.90;;;;;;4920880;29;20039;-93
2023/03/06 10:04:42;;;;;;;5.47;1.50;;;5.70;99.90;;;;;;4921528;29;20081;-92
2023/03/06 10:07:20;;;;;;;4.57;1.80;;;5.40;99.90;;;;;;4919843;29;20484;-92
2023/03/06 10:10:16;;;;;;;3.22;1.40;;;6.20;99.90;;;;;;4922133;29;20032;-91
2023/03/06 10:12:55;;;;;;;7.47;2.03;;;5.60;99.90;;;;;;4928152;29;20031;-93
2023/03/06 10:16:16;;;;;;;4.72;2.88;;;5.70;99.90;;;;;;4930987;29;21514;-91
2023/03/06 10:18:44;;;;;;;5.05;2.10;;;5.80;99.90;;;;;;4917168;29;20043;-92
2023/03/06 10:21:44;;;;;;;5.43;2.40;;;6.30;99.90;;;;;;4937614;29;20028;-92
2023/03/06 10:24:23;;;;;;;6.53;2.33;;;6.00;99.90;;;;;;4922536;29;20024;-92
2023/03/06 10:26:58;;;;;;;2.58;1.98;;;5.90;99.90;;;;;;4919804;29;20051;-93
2023/03/06 10:30:09;;;;;;;;;;;;;;;;;;;;;
2023/03/06 10:32:57;;;;;;;8.73;2.33;;;6.00;99.90;;;;;;4921214;29;20047;-91
2023/03/06 10:35:52;;;;;;;3.63;2.28;;;6.20;99.90;;;;;;4940993;29;20112;-91
2023/03/06 10:38:25;;;;;;;3.92;2.15;;;6.30;99.90;;;;;;4928915;29;20063;-91
2023/03/06 10:41:50;;;;;;;3.75;2.50;;;6.70;99.90;;;;;;4930130;29;20024;-91
2023/03/06 10:44:23;;;;;;;6.00;2.90;;;6.30;99.90;;;;;;4842996;29;20535;-92
2023/03/06 10:46:53;;;;;;;5.05;3.30;;;6.60;99.90;;;;;;4851957;29;20033;-91
2023/03/06 10:49:28;;;;;;;5.05;3.63;;;6.80;99.90;;;;;;4922081;29;20040;-91
2023/03/06 10:52:04;;;;;;;5.47;3.80;;;6.40;99.90;;;;;;4930374;29;20048;-90
2023/03/06 10:54:32;;;;;;;5.47;3.80;;;6.40;99.90;;;;;;4930730;29;20547;-92
2023/03/06 10:57:29;;;;;;;4.70;4.18;;;6.20;99.90;;;;;;4925421;29;20032;-91
2023/03/06 10:59:57;;;;;;;6.80;4.13;;;6.60;99.90;;;;;;4932498;29;20030;-91
2023/03/06 11:02:35;;;;;;;7.50;4.25;;;6.80;99.90;;;;;;4930193;29;20374;-91
2023/03/06 11:05:02;;;;;;;8.43;4.20;;;6.80;99.90;;;;;;4919585;29;20079;-92
2023/03/06 11:07:30;;;;;;;8.10;4.28;;;5.90;99.90;;;;;;4930328;29;20043;-92
2023/03/06 11:09:56;;;;;;;4.88;3.72;;;7.00;99.90;;;;;;4934260;29;20040;-94
2023/03/06 11:13:06;;;;;;;7.95;4.00;;;7.40;99.90;;;;;;4937595;29;20046;-91
2023/03/06 11:15:37;;;;;;;5.72;3.70;;;5.90;99.90;;;;;;4852999;29;20532;-94
2023/03/06 11:18:09;;;;;;;5.05;3.45;;;6.50;99.90;;;;;;4941474;23;20414;-91
2023/03/06 11:20:44;;;;;;;3.85;2.58;;;6.90;99.90;;;;;;4961220;29;20027;-94
2023/03/06 11:26:15;;;;;;;3.65;2.28;;;6.40;99.90;;;;;;4952126;23;20063;-92
2023/03/06 11:35:15;;;;;;;4.60;3.67;;;6.60;99.90;;;;;;4993044;23;20034;-90
2023/03/06 11:38:18;;;;;;;4.95;3.78;;;6.50;99.90;;;;;;4973977;23;20038;-91
2023/03/06 11:43:49;;;;;;;;;;;6.70;99.90;;;;;;4953386;23;20421;-91
2023/03/06 11:52:21;;;;;;;6.70;5.00;;;6.80;99.90;;;;;;4966472;23;20479;-92
2023/03/06 11:54:54;;;;;;;8.50;6.25;;;6.80;99.90;;;;;;4937112;29;20094;-92
2023/03/06 12:00:03;;;;;;;9.13;6.65;;;6.70;99.90;;;;;;4962113;23;20055;-91
2023/03/06 12:03:08;;;;;;;14.48;6.25;;;6.70;99.90;;;;;;4964139;29;20023;-92
2023/03/06 12:06:28;;;;;;;9.50;6.65;;;6.60;99.90;;;;;;4922741;29;20031;-94
2023/03/06 12:09:13;;;;;;;15.38;7.40;;;6.70;99.90;;;;;;4957524;29;20027;-92
2023/03/06 12:12:07;;;;;;;11.52;7.13;;;6.80;99.90;;;;;;4962144;29;20043;-93
2023/03/06 12:15:07;;;;;;;9.02;6.80;;;6.80;99.90;;;;;;4968707;29;20015;-92
2023/03/06 12:18:00;;;;;;;9.23;7.82;;;6.10;99.90;;;;;;4972632;29;20019;-92
2023/03/06 12:21:03;;;;;;;11.80;6.85;;;6.80;99.90;;;;;;4957182;29;20019;-93
2023/03/06 12:24:06;;;;;;;9.73;7.40;;;7.00;99.90;;;;;;4973839;29;20058;-91
2023/03/06 12:27:06;;;;;;;13.00;7.35;;;7.10;99.90;;;;;;4977507;29;20039;-93
2023/03/06 12:30:07;;;;;;;11.25;7.53;;;7.10;99.90;;;;;;4961215;29;20466;-92
2023/03/06 12:33:06;;;;;;;12.15;7.43;;;7.10;99.90;;;;;;4960476;29;20430;-92
2023/03/06 12:58:40;;;;;;;5.68;4.60;;;7.10;99.90;;;;;;5098114;23;20056;-92
2023/03/06 13:01:10;;;;;;;5.65;4.30;;;7.20;99.90;;;;;;4899981;29;20108;-83
2023/03/06 13:03:55;;;;;;;8.65;5.18;;;7.10;99.90;;;;;;4900822;29;20052;-84
2023/03/06 13:06:30;;;;;;;6.97;5.55;;;7.30;99.90;;;;;;4900998;29;20035;-83
2023/03/06 13:09:16;;;;;;;12.02;6.60;;;7.40;99.90;;;;;;4900510;29;20025;-81
2023/03/06 13:12:14;;;;;;;11.48;5.75;;;7.20;99.90;;;;;;4892388;29;20068;-82
2023/03/06 13:14:52;;;;;;;6.22;5.63;;;7.30;99.90;;;;;;4891472;29;20077;-82
2023/03/06 13:17:23;;;;;;;8.40;5.30;;;7.30;99.90;;;;;;4893678;29;20033;-82
2023/03/06 13:20:28;;;;;;;10.68;5.15;;;7.50;99.90;;;;;;4900376;29;20029;-80
2023/03/06 13:22:54;;;;;;;7.60;5.40;;;7.40;99.90;;;;;;4887015;29;20040;-89
2023/03/06 13:25:20;;;;;;;10.00;5.93;;;7.60;99.90;;;;;;4900209;29;20029;-88
2023/03/06 13:27:51;;;;;;;11.00;7.93;;;8.10;99.90;;;;;;4898241;29;20350;-89
2023/03/06 13:30:35;;;;;;;8.07;6.50;;;8.00;99.90;;;;;;4900001;29;20378;-89
2023/03/06 13:33:24;;;;;;;9.35;6.78;;;8.00;99.90;;;;;;4882765;29;20033;-88
2023/03/06 13:35:54;;;;;;;12.93;6.03;;;7.70;99.90;;;;;;4844850;29;20041;-90
2023/03/06 13:38:38;;;;;;;9.25;5.45;;;9.10;99.90;;;;;;4882050;29;20176;-88
2023/03/06 13:41:22;;;;;;;8.63;5.68;;;8.90;99.90;;;;;;4882912;29;20029;-89
2023/03/06 13:43:53;;;;;;;6.65;5.93;;;7.60;99.90;;;;;;4889448;29;20028;-90
2023/03/06 13:46:23;;;;;;;;;;;8.20;99.90;;;;;;4895602;29;20028;-91
2023/03/06 13:49:21;;;;;;;13.35;7.30;;;8.90;99.90;;;;;;4899272;29;19911;-90
2023/03/06 13:51:53;;;;;;;8.13;6.82;;;7.40;99.90;;;;;;4891377;29;20040;-90
2023/03/06 13:54:56;;;;;;;11.65;7.80;;;7.90;99.90;;;;;;4898893;29;20017;-89
2023/03/06 13:57:34;;;;;;;11.15;7.38;;;7.40;99.90;;;;;;4901080;29;20100;-90
2023/03/06 14:00:13;;;;;;;11.95;7.47;;;7.50;99.90;;;;;;4900305;29;20116;-89
2023/03/06 14:03:22;;;;;;;10.43;7.63;;;7.40;99.90;;;;;;4883881;29;20145;-89
2023/03/06 14:05:53;;;;;;;11.57;7.85;;;7.30;99.90;;;;;;4892655;29;20425;-89
2023/03/06 14:08:29;;;;;;;8.38;6.97;;;7.20;99.90;;;;;;4892733;29;20032;-90
2023/03/06 14:11:16;;;;;;;9.77;6.53;;;7.20;99.90;;;;;;4898446;29;20112;-90
2023/03/06 14:13:51;;;;;;;7.82;6.72;;;7.10;99.90;;;;;;4887597;29;20041;-89
2023/03/06 14:16:25;;;;;;;8.52;7.20;;;7.70;99.90;;;;;;4881663;29;20493;-88
2023/03/06 14:18:54;;;;;;;7.82;6.80;;;7.20;99.90;;;;;;4882680;29;20033;-91
2023/03/06 14:21:54;;;;;;;12.65;7.68;;;8.40;99.90;;;;;;4884545;29;20381;-90
2023/03/06 14:24:42;;;;;;;9.82;7.25;;;7.20;99.90;;;;;;4893333;29;20385;-91
2023/03/06 14:27:16;;;;;;;10.07;8.70;;;7.70;99.90;;;;;;4889173;29;20033;-89
2023/03/06 14:29:47;;;;;;;15.32;8.52;;;7.10;99.90;;;;;;4900976;29;20057;-91
2023/03/06 14:32:16;;;;;;;9.30;7.60;;;7.70;99.90;;;;;;4885183;29;20477;-89
2023/03/06 14:34:44;;;;;;;15.95;9.35;;;6.90;99.90;;;;;;4889031;29;20108;-88
2023/03/06 14:37:20;;;;;;;12.80;8.15;;;7.70;99.90;;;;;;4889866;29;20032;-88
2023/03/06 14:39:46;;;;;;;13.15;7.47;;;8.00;99.90;;;;;;4891750;29;20023;-88
2023/03/06 14:42:23;;;;;;;12.52;7.50;;;6.90;99.90;;;;;;4898446;29;20036;-87
2023/03/06 14:45:01;;;;;;;10.98;6.63;;;7.00;99.90;;;;;;4898397;29;20515;-86
2023/03/06 14:47:29;;;;;;;7.15;6.32;;;6.90;99.90;;;;;;4892920;29;20036;-87
2023/03/06 14:50:17;;;;;;;6.90;5.85;;;7.30;99.90;;;;;;4888619;29;20029;-89
2023/03/06 14:52:43;;;;;;;7.78;5.85;;;7.30;99.90;;;;;;4890100;29;20032;-88
2023/03/06 14:55:14;;;;;;;10.07;6.22;;;6.60;99.90;;;;;;4889106;29;20030;-88
2023/03/06 14:57:40;;;;;;;10.48;6.65;;;8.00;99.90;;;;;;4888068;29;20024;-88
2023/03/06 15:00:16;;;;;;;7.95;4.78;;;7.60;99.90;;;;;;4890425;29;20044;-89
2023/03/06 15:02:42;;;;;;;9.15;5.63;;;7.00;99.90;;;;;;4889699;29;20020;-88
2023/03/06 15:05:30;;;;;;;9.45;6.40;;;7.60;99.90;;;;;;4889203;29;20029;-89
2023/03/06 15:08:07;;;;;;;8.48;6.63;;;6.70;99.90;;;;;;4889694;29;20072;-89
2023/03/06 15:10:36;;;;;;;8.70;6.30;;;7.50;99.90;;;;;;4893519;29;20021;-88
2023/03/06 15:13:20;;;;;;;11.60;7.18;;;6.80;99.90;;;;;;4889998;29;20033;-89
2023/03/06 15:16:06;;;;;;;9.85;7.45;;;6.50;99.90;;;;;;4898890;29;20080;-88
2023/03/06 15:19:02;;;;;;;13.32;9.63;;;7.10;99.90;;;;;;4899474;29;20035;-88
2023/03/06 15:21:37;;;;;;;16.35;10.27;;;7.10;99.90;;;;;;4886611;29;20040;-88
2023/03/06 15:24:33;;;;;;;15.52;10.82;;;6.80;99.90;;;;;;4898485;29;20028;-87
2023/03/06 15:27:17;;;;;;;17.10;10.85;;;6.20;99.90;;;;;;4898522;29;20114;-89
2023/03/06 15:29:42;;;;;;;15.20;10.75;;;6.20;99.90;;;;;;4898694;29;20024;-89
2023/03/06 15:32:26;;;;;;;16.10;10.38;;;6.00;99.90;;;;;;4897876;29;20084;-89
2023/03/06 15:35:37;;;;;;;17.88;10.85;;;6.00;99.90;;;;;;4898866;29;20326;-89
2023/03/06 15:38:40;;;;;;;18.02;10.43;;;6.00;99.90;;;;;;4879742;29;20029;-90
2023/03/06 15:41:35;;;;;;;15.82;10.80;;;5.90;99.90;;;;;;4880017;29;20025;-88
2023/03/06 15:44:07;;;;;;;15.95;11.02;;;5.90;99.90;;;;;;4885046;29;20032;-85
2023/03/06 15:46:33;;;;;;;21.48;13.32;;;6.50;99.90;;;;;;4882419;29;20120;-87
2023/03/06 15:49:03;;;;;;;21.60;14.15;;;6.60;99.90;;;;;;4879153;29;20067;-90
2023/03/06 15:51:32;;;;;;;24.30;14.55;;;5.70;99.90;;;;;;4879480;29;20089;-89
2023/03/06 15:54:03;;;;;;;24.20;14.63;;;5.60;99.90;;;;;;4879590;29;20085;-88
2023/03/06 15:56:37;;;;;;;25.50;13.95;;;6.10;99.90;;;;;;4886366;29;20028;-89
2023/03/06 15:59:43;;;;;;;24.02;15.13;;;5.90;99.90;;;;;;4897917;29;20046;-91
2023/03/06 16:02:21;;;;;;;21.63;15.20;;;5.60;99.90;;;;;;4869298;29;20078;-89
2023/03/06 16:04:47;;;;;;;24.08;15.45;;;5.50;99.90;;;;;;4898872;29;20035;-87
2023/03/06 16:07:13;;;;;;;18.65;13.02;;;5.50;99.90;;;;;;4897823;29;20032;-87
2023/03/06 16:09:50;;;;;;;16.48;11.88;;;5.40;99.90;;;;;;4897438;29;20477;-92
2023/03/06 16:12:20;;;;;;;22.42;14.40;;;5.30;99.90;;;;;;4897901;29;20048;-89
2023/03/06 16:14:52;;;;;;;18.00;13.02;;;6.50;99.90;;;;;;4899882;29;20036;-89
2023/03/06 16:17:18;;;;;;;18.73;13.13;;;6.60;99.90;;;;;;4896860;29;20041;-90
2023/03/06 16:19:49;;;;;;;16.88;12.23;;;6.30;99.90;;;;;;4897701;29;20112;-86
2023/03/06 16:22:17;;;;;;;17.95;12.48;;;6.00;99.90;;;;;;4895877;29;20033;-88
2023/03/06 16:24:49;;;;;;;17.77;12.13;;;6.00;99.90;;;;;;4898173;29;20021;-89
2023/03/06 16:27:22;;;;;;;18.75;11.63;;;5.90;99.90;;;;;;4883392;29;20120;-86
2023/03/06 16:29:47;;;;;;;22.65;11.48;;;6.00;99.90;;;;;;4897771;29;20028;-88
2023/03/06 16:32:24;;;;;;;16.10;10.60;;;6.50;99.90;;;;;;4893787;29;20041;-89
2023/03/06 16:34:50;;;;;;;14.63;10.32;;;6.30;99.90;;;;;;4899013;29;20032;-94
2023/03/06 16:37:15;;;;;;;14.13;9.80;;;6.50;99.90;;;;;;4893617;29;20025;-90
2023/03/06 16:39:41;;;;;;;11.90;9.43;;;5.70;99.90;;;;;;4902157;29;20032;-93
2023/03/06 16:42:07;;;;;;;14.40;10.20;;;6.50;99.90;;;;;;4902511;29;20037;-92
2023/03/06 16:44:41;;;;;;;15.50;11.30;;;7.10;99.90;;;;;;4899299;29;20112;-91
2023/03/06 16:47:11;;;;;;;17.65;11.77;;;6.30;99.90;;;;;;4899526;29;20025;-93
2023/03/06 16:49:42;;;;;;;16.05;10.55;;;5.50;99.90;;;;;;4892605;29;20119;-90
2023/03/06 16:52:11;;;;;;;17.55;11.85;;;6.20;99.90;;;;;;4902248;29;20111;-92
2023/03/06 16:54:40;;;;;;;18.92;12.23;;;5.50;99.90;;;;;;4897597;29;20032;-91